< Cyclone 198508 1985 Season Cyclone 198601 >
Cyclone 198509 (JACOB)
General InformationDetailed Track InformationTrack Information on Google MapsList of All Images || ResourceGoogle EarthGE AnimationAtom FeedGeoJSON
Detalied Best Track Wind (Time Zone = UTC)
Year Month Day Hour Lat. Long. Wind (kt) Gust (kt) Direc. of Major Storm Axis Radius of Major Storm Axis (nm) Radius of Minor Storm Axis (nm) Direc. of Major Gale Axis Radius of Major Gale Axis (nm) Radius of Minor Gale Axis (nm) Image
1985 2 15 00 -8.9 127.6 23 -1 symmetric - - symmetric - - Image
1985 2 15 06 -10.0 127.3 27 -1 symmetric - - symmetric - - Image
1985 2 15 12 -10.9 127.1 31 -1 symmetric - - symmetric - - Image
1985 2 15 18 -11.6 126.7 31 -1 symmetric - - symmetric - - Image
1985 2 16 00 -12.0 126.1 31 -1 symmetric - - symmetric - - Image
1985 2 16 06 -12.2 125.3 33 -1 symmetric - - symmetric - - Image
1985 2 16 12 -12.4 124.4 35 -1 symmetric - - symmetric - - Image
1985 2 16 18 -12.5 123.3 37 -1 symmetric - - symmetric - - Image
1985 2 17 00 -12.6 122.1 41 -1 symmetric - - symmetric - - Image
1985 2 17 06 -13.0 121.2 43 -1 symmetric - - symmetric - - Image
1985 2 17 12 -13.3 120.4 47 -1 symmetric - - symmetric - - Image
1985 2 17 18 -13.7 119.7 51 -1 symmetric - - symmetric - - Image
1985 2 18 00 -14.0 118.9 54 -1 symmetric - - symmetric - - Image
1985 2 18 06 -14.3 118.1 60 -1 symmetric - - symmetric - - Image
1985 2 18 12 -14.6 117.4 66 -1 symmetric - - symmetric - - Image
1985 2 18 18 -14.7 116.7 78 -1 symmetric - - symmetric - - Image
1985 2 19 00 -14.9 116.1 82 -1 symmetric - - symmetric - - Image
1985 2 19 06 -15.0 115.1 88 -1 symmetric - - symmetric - - Image
1985 2 19 12 -15.1 114.7 91 -1 symmetric - - symmetric - - Image
1985 2 19 18 -15.3 113.9 93 -1 symmetric - - symmetric - - Image
1985 2 20 00 -15.4 113.0 93 -1 symmetric - - symmetric - - Image
1985 2 20 06 -15.6 112.2 95 -1 symmetric - - symmetric - - Image
1985 2 20 12 -15.6 111.5 93 -1 symmetric - - symmetric - - Image
1985 2 20 18 -15.7 110.9 93 -1 symmetric - - symmetric - - Image
1985 2 21 00 -15.8 110.1 93 -1 symmetric - - symmetric - - Image
1985 2 21 06 -15.8 109.1 93 -1 symmetric - - symmetric - - Image
1985 2 21 12 -16.0 107.9 93 -1 symmetric - - symmetric - - Image
1985 2 21 18 -16.2 106.5 93 -1 symmetric - - symmetric - - Image
1985 2 22 00 -16.8 105.3 91 -1 symmetric - - symmetric - - Image
1985 2 22 06 -17.4 104.3 91 -1 symmetric - - symmetric - - Image
1985 2 22 12 -17.9 103.4 89 -1 symmetric - - symmetric - - Image
1985 2 22 18 -18.2 102.8 89 -1 symmetric - - symmetric - - Image
1985 2 23 00 -18.6 102.2 89 -1 symmetric - - symmetric - - Image
1985 2 23 06 -19.2 101.5 88 -1 symmetric - - symmetric - - Image
1985 2 23 12 -20.0 100.4 86 -1 symmetric - - symmetric - - Image
1985 2 23 18 -20.7 99.4 68 -1 symmetric - - symmetric - - Image
1985 2 24 00 -21.7 98.7 84 -1 symmetric - - symmetric - - Image
1985 2 24 06 -22.6 97.5 81 -1 symmetric - - symmetric - - Image
1985 2 24 12 -23.6 96.7 78 -1 symmetric - - symmetric - - Image
1985 2 24 18 -24.8 96.1 74 -1 symmetric - - symmetric - - Image
1985 2 25 00 -26.0 95.8 66 -1 symmetric - - symmetric - - Image
1985 2 25 06 -27.4 95.5 62 -1 symmetric - - symmetric - - Image
1985 2 25 12 -28.9 95.4 58 -1 symmetric - - symmetric - - Image
1985 2 25 18 -30.6 95.6 54 -1 symmetric - - symmetric - - Image
1985 2 26 00 -32.4 96.1 51 -1 symmetric - - symmetric - - Image
1985 2 26 06 -34.3 97.4 43 -1 symmetric - - symmetric - - Image
1985 2 26 12 -35.4 98.8 41 -1 symmetric - - symmetric - - Image
1985 2 26 18 -36.5 100.2 39 -1 symmetric - - symmetric - - Image
1985 2 27 00 -37.3 101.7 37 -1 symmetric - - symmetric - - Image
1985 2 27 06 -38.1 103.2 35 -1 symmetric - - symmetric - - Image
1985 2 27 12 -38.7 105.6 33 -1 symmetric - - symmetric - - Image
1985 2 27 18 -39.1 108.5 31 -1 symmetric - - symmetric - - Image
1985 2 28 00 -39.1 111.4 25 -1 symmetric - - symmetric - - Image
< Cyclone 198508 1985 Season Cyclone 198601 >

Help